sensor_id;sensor_type;location;lat;lon;timestamp;P1;durP1;ratioP1;P2;durP2;ratioP2
53931;SDS011;39844;52.496;13.482;2022-08-19T00:00:39;5.68;;;4.68;;
53931;SDS011;39844;52.496;13.482;2022-08-19T00:03:05;5.45;;;4.95;;
53931;SDS011;39844;52.496;13.482;2022-08-19T00:05:31;5.47;;;4.97;;
53931;SDS011;39844;52.496;13.482;2022-08-19T00:07:57;6.05;;;4.97;;
53931;SDS011;39844;52.496;13.482;2022-08-19T00:10:22;6.22;;;4.90;;
53931;SDS011;39844;52.496;13.482;2022-08-19T00:12:49;6.07;;;5.05;;
53931;SDS011;39844;52.496;13.482;2022-08-19T00:15:16;5.53;;;4.93;;
53931;SDS011;39844;52.496;13.482;2022-08-19T00:17:45;6.15;;;5.15;;
53931;SDS011;39844;52.496;13.482;2022-08-19T00:20:12;6.28;;;5.50;;
53931;SDS011;39844;52.496;13.482;2022-08-19T00:22:42;5.55;;;4.78;;
53931;SDS011;39844;52.496;13.482;2022-08-19T00:25:08;5.82;;;5.03;;
53931;SDS011;39844;52.496;13.482;2022-08-19T00:27:34;5.28;;;4.78;;
53931;SDS011;39844;52.496;13.482;2022-08-19T00:29:59;5.32;;;4.75;;
53931;SDS011;39844;52.496;13.482;2022-08-19T00:32:26;6.35;;;5.53;;
53931;SDS011;39844;52.496;13.482;2022-08-19T00:34:52;5.57;;;4.53;;
53931;SDS011;39844;52.496;13.482;2022-08-19T00:37:22;5.18;;;4.68;;
53931;SDS011;39844;52.496;13.482;2022-08-19T00:39:50;5.85;;;4.97;;
53931;SDS011;39844;52.496;13.482;2022-08-19T00:42:16;7.85;;;5.28;;
53931;SDS011;39844;52.496;13.482;2022-08-19T00:44:42;6.70;;;5.07;;
53931;SDS011;39844;52.496;13.482;2022-08-19T00:47:08;5.78;;;5.22;;
53931;SDS011;39844;52.496;13.482;2022-08-19T00:52:08;6.07;;;5.47;;
53931;SDS011;39844;52.496;13.482;2022-08-19T00:54:38;6.47;;;5.43;;
53931;SDS011;39844;52.496;13.482;2022-08-19T00:57:05;6.15;;;5.35;;
53931;SDS011;39844;52.496;13.482;2022-08-19T00:59:34;7.10;;;5.65;;
53931;SDS011;39844;52.496;13.482;2022-08-19T01:02:00;5.45;;;4.88;;
53931;SDS011;39844;52.496;13.482;2022-08-19T01:04:26;6.13;;;5.20;;
53931;SDS011;39844;52.496;13.482;2022-08-19T01:06:51;6.10;;;5.50;;
53931;SDS011;39844;52.496;13.482;2022-08-19T01:09:17;4.90;;;4.40;;
53931;SDS011;39844;52.496;13.482;2022-08-19T01:11:42;5.88;;;5.30;;
53931;SDS011;39844;52.496;13.482;2022-08-19T01:14:09;5.88;;;4.72;;
53931;SDS011;39844;52.496;13.482;2022-08-19T01:16:35;7.50;;;5.47;;
53931;SDS011;39844;52.496;13.482;2022-08-19T01:19:02;5.63;;;4.82;;
53931;SDS011;39844;52.496;13.482;2022-08-19T01:21:36;6.03;;;4.53;;
53931;SDS011;39844;52.496;13.482;2022-08-19T01:24:11;7.18;;;5.30;;
53931;SDS011;39844;52.496;13.482;2022-08-19T01:26:40;7.53;;;4.90;;
53931;SDS011;39844;52.496;13.482;2022-08-19T01:29:08;6.32;;;5.05;;
53931;SDS011;39844;52.496;13.482;2022-08-19T01:31:34;6.18;;;5.57;;
53931;SDS011;39844;52.496;13.482;2022-08-19T01:34:02;9.00;;;6.18;;
53931;SDS011;39844;52.496;13.482;2022-08-19T01:36:32;7.30;;;5.60;;
53931;SDS011;39844;52.496;13.482;2022-08-19T01:39:00;9.88;;;5.65;;
53931;SDS011;39844;52.496;13.482;2022-08-19T01:41:28;10.10;;;5.22;;
53931;SDS011;39844;52.496;13.482;2022-08-19T01:43:54;9.25;;;6.03;;
53931;SDS011;39844;52.496;13.482;2022-08-19T01:46:21;5.90;;;4.93;;
53931;SDS011;39844;52.496;13.482;2022-08-19T01:48:46;7.35;;;5.00;;
53931;SDS011;39844;52.496;13.482;2022-08-19T01:51:12;6.65;;;4.85;;
53931;SDS011;39844;52.496;13.482;2022-08-19T01:53:38;6.82;;;5.53;;
53931;SDS011;39844;52.496;13.482;2022-08-19T01:56:05;9.10;;;6.10;;
53931;SDS011;39844;52.496;13.482;2022-08-19T01:58:32;9.23;;;5.72;;
53931;SDS011;39844;52.496;13.482;2022-08-19T02:01:02;10.15;;;5.68;;
53931;SDS011;39844;52.496;13.482;2022-08-19T02:03:28;5.88;;;5.00;;
53931;SDS011;39844;52.496;13.482;2022-08-19T02:05:58;7.72;;;4.93;;
53931;SDS011;39844;52.496;13.482;2022-08-19T02:08:25;5.57;;;4.57;;
53931;SDS011;39844;52.496;13.482;2022-08-19T02:10:51;7.45;;;5.28;;
53931;SDS011;39844;52.496;13.482;2022-08-19T02:13:17;6.55;;;4.72;;
53931;SDS011;39844;52.496;13.482;2022-08-19T02:15:42;6.25;;;5.32;;
53931;SDS011;39844;52.496;13.482;2022-08-19T02:18:08;5.78;;;4.78;;
53931;SDS011;39844;52.496;13.482;2022-08-19T02:20:33;6.60;;;5.07;;
53931;SDS011;39844;52.496;13.482;2022-08-19T02:23:00;5.75;;;5.07;;
53931;SDS011;39844;52.496;13.482;2022-08-19T02:25:26;5.95;;;5.35;;
53931;SDS011;39844;52.496;13.482;2022-08-19T02:27:52;5.90;;;5.30;;
53931;SDS011;39844;52.496;13.482;2022-08-19T02:30:19;5.75;;;5.10;;
53931;SDS011;39844;52.496;13.482;2022-08-19T02:32:44;5.55;;;4.97;;
53931;SDS011;39844;52.496;13.482;2022-08-19T02:35:10;7.53;;;5.40;;
53931;SDS011;39844;52.496;13.482;2022-08-19T02:37:37;5.50;;;4.50;;
53931;SDS011;39844;52.496;13.482;2022-08-19T02:40:21;6.90;;;5.20;;
53931;SDS011;39844;52.496;13.482;2022-08-19T02:42:46;6.47;;;4.63;;
53931;SDS011;39844;52.496;13.482;2022-08-19T02:45:12;6.70;;;5.80;;
53931;SDS011;39844;52.496;13.482;2022-08-19T02:47:38;5.28;;;4.60;;
53931;SDS011;39844;52.496;13.482;2022-08-19T02:50:04;7.32;;;5.20;;
53931;SDS011;39844;52.496;13.482;2022-08-19T02:52:32;6.45;;;4.50;;
53931;SDS011;39844;52.496;13.482;2022-08-19T02:54:58;6.53;;;5.07;;
53931;SDS011;39844;52.496;13.482;2022-08-19T02:57:25;5.47;;;4.97;;
53931;SDS011;39844;52.496;13.482;2022-08-19T02:59:51;5.22;;;4.72;;
53931;SDS011;39844;52.496;13.482;2022-08-19T03:02:17;5.55;;;4.70;;
53931;SDS011;39844;52.496;13.482;2022-08-19T03:04:42;6.70;;;5.20;;
53931;SDS011;39844;52.496;13.482;2022-08-19T03:07:08;6.45;;;5.78;;
53931;SDS011;39844;52.496;13.482;2022-08-19T03:09:36;7.65;;;5.82;;
53931;SDS011;39844;52.496;13.482;2022-08-19T03:12:03;5.63;;;5.10;;
53931;SDS011;39844;52.496;13.482;2022-08-19T03:14:32;7.22;;;4.90;;
53931;SDS011;39844;52.496;13.482;2022-08-19T03:16:58;6.03;;;5.50;;
53931;SDS011;39844;52.496;13.482;2022-08-19T03:19:24;6.57;;;5.50;;
53931;SDS011;39844;52.496;13.482;2022-08-19T03:21:50;5.50;;;4.93;;
53931;SDS011;39844;52.496;13.482;2022-08-19T03:24:17;7.38;;;5.40;;
53931;SDS011;39844;52.496;13.482;2022-08-19T03:26:45;8.57;;;5.43;;
53931;SDS011;39844;52.496;13.482;2022-08-19T03:29:16;6.68;;;5.30;;
53931;SDS011;39844;52.496;13.482;2022-08-19T03:31:42;7.55;;;5.10;;
53931;SDS011;39844;52.496;13.482;2022-08-19T03:34:08;5.55;;;4.93;;
53931;SDS011;39844;52.496;13.482;2022-08-19T03:36:38;6.88;;;5.28;;
53931;SDS011;39844;52.496;13.482;2022-08-19T03:39:04;6.95;;;5.30;;
53931;SDS011;39844;52.496;13.482;2022-08-19T03:41:31;5.68;;;5.13;;
53931;SDS011;39844;52.496;13.482;2022-08-19T03:43:58;5.57;;;5.03;;
53931;SDS011;39844;52.496;13.482;2022-08-19T03:46:28;7.38;;;4.60;;
53931;SDS011;39844;52.496;13.482;2022-08-19T03:48:56;7.00;;;5.22;;
53931;SDS011;39844;52.496;13.482;2022-08-19T03:51:23;6.18;;;5.22;;
53931;SDS011;39844;52.496;13.482;2022-08-19T03:53:51;5.63;;;5.13;;
53931;SDS011;39844;52.496;13.482;2022-08-19T03:56:18;7.35;;;4.72;;
53931;SDS011;39844;52.496;13.482;2022-08-19T03:58:43;5.82;;;4.85;;
53931;SDS011;39844;52.496;13.482;2022-08-19T04:01:20;8.02;;;5.00;;
53931;SDS011;39844;52.496;13.482;2022-08-19T04:03:47;7.57;;;5.25;;
53931;SDS011;39844;52.496;13.482;2022-08-19T04:06:15;6.25;;;5.57;;
53931;SDS011;39844;52.496;13.482;2022-08-19T04:08:44;9.52;;;5.13;;
53931;SDS011;39844;52.496;13.482;2022-08-19T04:11:12;6.43;;;4.70;;
53931;SDS011;39844;52.496;13.482;2022-08-19T04:13:42;7.30;;;5.20;;
53931;SDS011;39844;52.496;13.482;2022-08-19T04:16:09;8.57;;;5.00;;
53931;SDS011;39844;52.496;13.482;2022-08-19T04:18:35;7.50;;;6.05;;
53931;SDS011;39844;52.496;13.482;2022-08-19T04:21:02;5.82;;;5.30;;
53931;SDS011;39844;52.496;13.482;2022-08-19T04:23:28;9.63;;;5.80;;
53931;SDS011;39844;52.496;13.482;2022-08-19T04:25:55;6.95;;;5.68;;
53931;SDS011;39844;52.496;13.482;2022-08-19T04:28:20;7.25;;;4.95;;
53931;SDS011;39844;52.496;13.482;2022-08-19T04:30:47;7.07;;;5.57;;
53931;SDS011;39844;52.496;13.482;2022-08-19T04:33:16;6.70;;;5.90;;
53931;SDS011;39844;52.496;13.482;2022-08-19T04:35:44;6.78;;;5.22;;
53931;SDS011;39844;52.496;13.482;2022-08-19T04:38:12;5.97;;;5.38;;
53931;SDS011;39844;52.496;13.482;2022-08-19T04:40:41;6.05;;;4.85;;
53931;SDS011;39844;52.496;13.482;2022-08-19T04:43:30;5.95;;;5.35;;
53931;SDS011;39844;52.496;13.482;2022-08-19T04:45:57;5.88;;;5.38;;
53931;SDS011;39844;52.496;13.482;2022-08-19T04:48:23;7.93;;;5.38;;
53931;SDS011;39844;52.496;13.482;2022-08-19T04:50:55;6.88;;;5.50;;
53931;SDS011;39844;52.496;13.482;2022-08-19T04:53:31;5.50;;;5.00;;
53931;SDS011;39844;52.496;13.482;2022-08-19T04:55:59;5.75;;;5.18;;
53931;SDS011;39844;52.496;13.482;2022-08-19T04:58:28;6.15;;;5.30;;
53931;SDS011;39844;52.496;13.482;2022-08-19T05:00:53;8.43;;;4.97;;
53931;SDS011;39844;52.496;13.482;2022-08-19T05:03:19;5.88;;;5.22;;
53931;SDS011;39844;52.496;13.482;2022-08-19T05:05:45;6.03;;;5.00;;
53931;SDS011;39844;52.496;13.482;2022-08-19T05:08:17;4.55;;;4.15;;
53931;SDS011;39844;52.496;13.482;2022-08-19T05:10:45;6.80;;;5.20;;
53931;SDS011;39844;52.496;13.482;2022-08-19T05:13:13;6.63;;;5.47;;
53931;SDS011;39844;52.496;13.482;2022-08-19T05:15:39;6.35;;;5.15;;
53931;SDS011;39844;52.496;13.482;2022-08-19T05:18:05;6.15;;;5.25;;
53931;SDS011;39844;52.496;13.482;2022-08-19T05:20:48;5.55;;;5.05;;
53931;SDS011;39844;52.496;13.482;2022-08-19T05:23:32;5.45;;;4.50;;
53931;SDS011;39844;52.496;13.482;2022-08-19T05:25:57;6.65;;;5.40;;
53931;SDS011;39844;52.496;13.482;2022-08-19T05:28:23;6.80;;;5.50;;
53931;SDS011;39844;52.496;13.482;2022-08-19T05:30:48;6.00;;;5.20;;
53931;SDS011;39844;52.496;13.482;2022-08-19T05:33:15;5.93;;;5.28;;
53931;SDS011;39844;52.496;13.482;2022-08-19T05:35:42;7.15;;;5.13;;
53931;SDS011;39844;52.496;13.482;2022-08-19T05:38:07;5.15;;;4.60;;
53931;SDS011;39844;52.496;13.482;2022-08-19T05:40:36;6.35;;;5.70;;
53931;SDS011;39844;52.496;13.482;2022-08-19T05:43:04;8.90;;;5.78;;
53931;SDS011;39844;52.496;13.482;2022-08-19T05:45:32;6.03;;;5.25;;
53931;SDS011;39844;52.496;13.482;2022-08-19T05:47:58;7.78;;;6.53;;
53931;SDS011;39844;52.496;13.482;2022-08-19T05:50:24;5.85;;;5.28;;
53931;SDS011;39844;52.496;13.482;2022-08-19T05:52:51;5.82;;;5.25;;
53931;SDS011;39844;52.496;13.482;2022-08-19T05:55:17;5.95;;;5.35;;
53931;SDS011;39844;52.496;13.482;2022-08-19T05:57:45;5.68;;;5.18;;
53931;SDS011;39844;52.496;13.482;2022-08-19T06:00:10;6.85;;;4.75;;
53931;SDS011;39844;52.496;13.482;2022-08-19T06:02:36;5.78;;;5.25;;
53931;SDS011;39844;52.496;13.482;2022-08-19T06:05:03;5.68;;;4.88;;
53931;SDS011;39844;52.496;13.482;2022-08-19T06:07:31;5.18;;;4.68;;
53931;SDS011;39844;52.496;13.482;2022-08-19T06:09:56;7.65;;;5.32;;
53931;SDS011;39844;52.496;13.482;2022-08-19T06:12:22;5.55;;;4.95;;
53931;SDS011;39844;52.496;13.482;2022-08-19T06:14:53;7.07;;;6.05;;
53931;SDS011;39844;52.496;13.482;2022-08-19T06:17:19;8.38;;;5.80;;
53931;SDS011;39844;52.496;13.482;2022-08-19T06:19:47;9.02;;;5.75;;
53931;SDS011;39844;52.496;13.482;2022-08-19T06:22:14;7.30;;;5.97;;
53931;SDS011;39844;52.496;13.482;2022-08-19T06:24:40;7.53;;;6.05;;
53931;SDS011;39844;52.496;13.482;2022-08-19T06:27:05;8.20;;;5.32;;
53931;SDS011;39844;52.496;13.482;2022-08-19T06:29:30;9.23;;;6.40;;
53931;SDS011;39844;52.496;13.482;2022-08-19T06:31:57;7.65;;;6.47;;
53931;SDS011;39844;52.496;13.482;2022-08-19T06:34:24;7.93;;;6.07;;
53931;SDS011;39844;52.496;13.482;2022-08-19T06:36:53;8.65;;;6.05;;
53931;SDS011;39844;52.496;13.482;2022-08-19T06:39:20;8.60;;;5.97;;
53931;SDS011;39844;52.496;13.482;2022-08-19T06:41:50;8.02;;;5.78;;
53931;SDS011;39844;52.496;13.482;2022-08-19T06:44:18;6.57;;;5.93;;
53931;SDS011;39844;52.496;13.482;2022-08-19T06:46:44;8.30;;;6.20;;
53931;SDS011;39844;52.496;13.482;2022-08-19T06:49:10;7.95;;;6.15;;
53931;SDS011;39844;52.496;13.482;2022-08-19T06:51:39;6.88;;;6.20;;
53931;SDS011;39844;52.496;13.482;2022-08-19T06:54:06;6.63;;;5.90;;
53931;SDS011;39844;52.496;13.482;2022-08-19T06:56:32;7.63;;;6.25;;
53931;SDS011;39844;52.496;13.482;2022-08-19T06:59:01;6.82;;;6.13;;
53931;SDS011;39844;52.496;13.482;2022-08-19T07:01:28;8.88;;;6.35;;
53931;SDS011;39844;52.496;13.482;2022-08-19T07:03:53;6.57;;;5.60;;
53931;SDS011;39844;52.496;13.482;2022-08-19T07:06:19;8.07;;;6.03;;
53931;SDS011;39844;52.496;13.482;2022-08-19T07:08:45;7.13;;;6.13;;
53931;SDS011;39844;52.496;13.482;2022-08-19T07:11:13;7.00;;;6.32;;
53931;SDS011;39844;52.496;13.482;2022-08-19T07:13:40;7.22;;;6.03;;
53931;SDS011;39844;52.496;13.482;2022-08-19T07:16:10;8.10;;;6.80;;
53931;SDS011;39844;52.496;13.482;2022-08-19T07:18:40;7.65;;;6.18;;
53931;SDS011;39844;52.496;13.482;2022-08-19T07:21:13;6.60;;;5.90;;
53931;SDS011;39844;52.496;13.482;2022-08-19T07:23:47;9.40;;;6.47;;
53931;SDS011;39844;52.496;13.482;2022-08-19T07:26:15;9.23;;;6.20;;
53931;SDS011;39844;52.496;13.482;2022-08-19T07:28:44;6.90;;;5.97;;
53931;SDS011;39844;52.496;13.482;2022-08-19T07:31:11;7.75;;;6.60;;
53931;SDS011;39844;52.496;13.482;2022-08-19T07:33:38;8.80;;;6.32;;
53931;SDS011;39844;52.496;13.482;2022-08-19T07:36:05;8.10;;;6.35;;
53931;SDS011;39844;52.496;13.482;2022-08-19T07:38:33;9.63;;;6.20;;
53931;SDS011;39844;52.496;13.482;2022-08-19T07:40:59;8.05;;;6.55;;
53931;SDS011;39844;52.496;13.482;2022-08-19T07:43:26;7.07;;;5.82;;
53931;SDS011;39844;52.496;13.482;2022-08-19T07:45:55;5.97;;;5.45;;
53931;SDS011;39844;52.496;13.482;2022-08-19T07:48:23;8.05;;;6.32;;
53931;SDS011;39844;52.496;13.482;2022-08-19T07:50:51;8.70;;;6.80;;
53931;SDS011;39844;52.496;13.482;2022-08-19T07:53:19;8.13;;;7.18;;
53931;SDS011;39844;52.496;13.482;2022-08-19T07:55:46;8.00;;;6.68;;
53931;SDS011;39844;52.496;13.482;2022-08-19T07:58:12;7.55;;;6.78;;
53931;SDS011;39844;52.496;13.482;2022-08-19T08:00:40;6.78;;;5.90;;
53931;SDS011;39844;52.496;13.482;2022-08-19T08:03:06;9.27;;;7.10;;
53931;SDS011;39844;52.496;13.482;2022-08-19T08:05:37;8.00;;;6.60;;
53931;SDS011;39844;52.496;13.482;2022-08-19T08:08:21;7.85;;;7.05;;
53931;SDS011;39844;52.496;13.482;2022-08-19T08:11:06;8.63;;;6.68;;
53931;SDS011;39844;52.496;13.482;2022-08-19T08:13:32;11.75;;;7.00;;
53931;SDS011;39844;52.496;13.482;2022-08-19T08:16:00;9.18;;;7.10;;
53931;SDS011;39844;52.496;13.482;2022-08-19T08:18:26;11.73;;;7.53;;
53931;SDS011;39844;52.496;13.482;2022-08-19T08:20:51;7.80;;;6.68;;
53931;SDS011;39844;52.496;13.482;2022-08-19T08:23:16;7.03;;;6.32;;
53931;SDS011;39844;52.496;13.482;2022-08-19T08:25:48;10.23;;;7.38;;
53931;SDS011;39844;52.496;13.482;2022-08-19T08:28:14;9.25;;;6.68;;
53931;SDS011;39844;52.496;13.482;2022-08-19T08:30:40;7.38;;;6.68;;
53931;SDS011;39844;52.496;13.482;2022-08-19T08:33:08;8.13;;;7.32;;
53931;SDS011;39844;52.496;13.482;2022-08-19T08:35:34;10.38;;;7.30;;
53931;SDS011;39844;52.496;13.482;2022-08-19T08:38:00;7.60;;;6.88;;
53931;SDS011;39844;52.496;13.482;2022-08-19T08:43:35;13.27;;;7.30;;
53931;SDS011;39844;52.496;13.482;2022-08-19T08:46:05;8.63;;;7.82;;
53931;SDS011;39844;52.496;13.482;2022-08-19T08:48:36;8.70;;;7.35;;
53931;SDS011;39844;52.496;13.482;2022-08-19T08:51:09;10.00;;;8.18;;
53931;SDS011;39844;52.496;13.482;2022-08-19T08:53:38;9.38;;;8.10;;
53931;SDS011;39844;52.496;13.482;2022-08-19T08:56:06;9.32;;;7.72;;
53931;SDS011;39844;52.496;13.482;2022-08-19T09:01:08;9.95;;;7.43;;
53931;SDS011;39844;52.496;13.482;2022-08-19T09:03:36;8.32;;;7.07;;
53931;SDS011;39844;52.496;13.482;2022-08-19T09:06:11;14.95;;;7.45;;
53931;SDS011;39844;52.496;13.482;2022-08-19T09:16:57;8.23;;;7.40;;
53931;SDS011;39844;52.496;13.482;2022-08-19T09:19:23;10.75;;;8.15;;
53931;SDS011;39844;52.496;13.482;2022-08-19T09:21:48;9.95;;;8.70;;
53931;SDS011;39844;52.496;13.482;2022-08-19T09:24:17;10.63;;;7.97;;
53931;SDS011;39844;52.496;13.482;2022-08-19T09:26:43;13.25;;;8.50;;
53931;SDS011;39844;52.496;13.482;2022-08-19T09:29:11;9.80;;;8.30;;
53931;SDS011;39844;52.496;13.482;2022-08-19T09:31:45;12.48;;;8.02;;
53931;SDS011;39844;52.496;13.482;2022-08-19T09:34:18;10.65;;;8.48;;
53931;SDS011;39844;52.496;13.482;2022-08-19T09:36:46;8.68;;;7.88;;
53931;SDS011;39844;52.496;13.482;2022-08-19T09:39:20;9.85;;;7.25;;
53931;SDS011;39844;52.496;13.482;2022-08-19T09:41:46;9.27;;;7.78;;
53931;SDS011;39844;52.496;13.482;2022-08-19T09:44:12;9.38;;;8.40;;
53931;SDS011;39844;52.496;13.482;2022-08-19T09:46:45;11.68;;;8.88;;
53931;SDS011;39844;52.496;13.482;2022-08-19T09:49:17;9.38;;;7.90;;
53931;SDS011;39844;52.496;13.482;2022-08-19T09:51:49;9.30;;;7.90;;
53931;SDS011;39844;52.496;13.482;2022-08-19T09:54:15;8.80;;;7.90;;
53931;SDS011;39844;52.496;13.482;2022-08-19T09:56:45;8.80;;;7.28;;
53931;SDS011;39844;52.496;13.482;2022-08-19T09:59:11;11.30;;;7.65;;
53931;SDS011;39844;52.496;13.482;2022-08-19T10:01:37;9.45;;;7.80;;
53931;SDS011;39844;52.496;13.482;2022-08-19T10:04:03;9.25;;;7.63;;
53931;SDS011;39844;52.496;13.482;2022-08-19T10:06:36;10.05;;;8.07;;
53931;SDS011;39844;52.496;13.482;2022-08-19T10:09:05;13.43;;;8.18;;
53931;SDS011;39844;52.496;13.482;2022-08-19T10:11:39;8.85;;;7.55;;
53931;SDS011;39844;52.496;13.482;2022-08-19T10:14:09;10.07;;;7.80;;
53931;SDS011;39844;52.496;13.482;2022-08-19T10:16:36;9.63;;;7.28;;
53931;SDS011;39844;52.496;13.482;2022-08-19T10:19:02;7.53;;;6.80;;
53931;SDS011;39844;52.496;13.482;2022-08-19T10:21:30;9.10;;;7.53;;
53931;SDS011;39844;52.496;13.482;2022-08-19T10:23:58;10.80;;;7.68;;
53931;SDS011;39844;52.496;13.482;2022-08-19T10:26:30;8.43;;;7.05;;
53931;SDS011;39844;52.496;13.482;2022-08-19T10:28:57;10.80;;;7.63;;
53931;SDS011;39844;52.496;13.482;2022-08-19T10:31:28;9.48;;;7.18;;
53931;SDS011;39844;52.496;13.482;2022-08-19T10:33:59;9.68;;;7.93;;
53931;SDS011;39844;52.496;13.482;2022-08-19T10:36:27;8.82;;;6.95;;
53931;SDS011;39844;52.496;13.482;2022-08-19T10:39:01;8.98;;;7.57;;
53931;SDS011;39844;52.496;13.482;2022-08-19T10:41:35;8.27;;;7.18;;
53931;SDS011;39844;52.496;13.482;2022-08-19T10:44:04;7.75;;;6.75;;
53931;SDS011;39844;52.496;13.482;2022-08-19T10:46:32;11.90;;;7.47;;
53931;SDS011;39844;52.496;13.482;2022-08-19T10:49:02;11.23;;;7.25;;
53931;SDS011;39844;52.496;13.482;2022-08-19T10:51:30;8.10;;;7.20;;
53931;SDS011;39844;52.496;13.482;2022-08-19T10:54:17;8.68;;;6.80;;
53931;SDS011;39844;52.496;13.482;2022-08-19T10:56:44;7.97;;;7.18;;
53931;SDS011;39844;52.496;13.482;2022-08-19T10:59:16;9.15;;;7.30;;
53931;SDS011;39844;52.496;13.482;2022-08-19T11:01:59;7.78;;;6.63;;
53931;SDS011;39844;52.496;13.482;2022-08-19T11:04:26;7.97;;;7.20;;
53931;SDS011;39844;52.496;13.482;2022-08-19T11:06:55;7.93;;;7.10;;
53931;SDS011;39844;52.496;13.482;2022-08-19T11:09:24;8.25;;;6.32;;
53931;SDS011;39844;52.496;13.482;2022-08-19T11:11:52;7.03;;;6.43;;
53931;SDS011;39844;52.496;13.482;2022-08-19T11:14:19;9.02;;;6.90;;
53931;SDS011;39844;52.496;13.482;2022-08-19T11:16:49;12.98;;;7.78;;
53931;SDS011;39844;52.496;13.482;2022-08-19T11:19:20;8.05;;;7.25;;
53931;SDS011;39844;52.496;13.482;2022-08-19T11:21:49;8.73;;;7.22;;
53931;SDS011;39844;52.496;13.482;2022-08-19T11:24:20;8.60;;;7.35;;
53931;SDS011;39844;52.496;13.482;2022-08-19T11:26:48;7.05;;;6.30;;
53931;SDS011;39844;52.496;13.482;2022-08-19T11:29:14;13.50;;;7.55;;
53931;SDS011;39844;52.496;13.482;2022-08-19T11:31:43;7.85;;;6.72;;
53931;SDS011;39844;52.496;13.482;2022-08-19T11:34:11;8.68;;;7.07;;
53931;SDS011;39844;52.496;13.482;2022-08-19T11:36:41;8.68;;;7.05;;
53931;SDS011;39844;52.496;13.482;2022-08-19T11:39:10;8.20;;;7.22;;
53931;SDS011;39844;52.496;13.482;2022-08-19T11:41:37;9.60;;;7.25;;
53931;SDS011;39844;52.496;13.482;2022-08-19T11:44:02;8.20;;;6.43;;
53931;SDS011;39844;52.496;13.482;2022-08-19T11:46:29;8.35;;;7.07;;
53931;SDS011;39844;52.496;13.482;2022-08-19T11:48:58;7.75;;;6.95;;
53931;SDS011;39844;52.496;13.482;2022-08-19T11:51:25;8.15;;;7.15;;
53931;SDS011;39844;52.496;13.482;2022-08-19T11:53:53;7.18;;;6.40;;
53931;SDS011;39844;52.496;13.482;2022-08-19T11:56:19;8.35;;;6.25;;
53931;SDS011;39844;52.496;13.482;2022-08-19T11:58:45;8.25;;;6.18;;
53931;SDS011;39844;52.496;13.482;2022-08-19T12:01:11;9.00;;;6.05;;
53931;SDS011;39844;52.496;13.482;2022-08-19T12:03:40;6.90;;;6.20;;
53931;SDS011;39844;52.496;13.482;2022-08-19T12:06:09;7.45;;;5.47;;
53931;SDS011;39844;52.496;13.482;2022-08-19T12:08:38;7.82;;;6.03;;
53931;SDS011;39844;52.496;13.482;2022-08-19T12:11:04;7.20;;;5.43;;
53931;SDS011;39844;52.496;13.482;2022-08-19T12:13:32;6.95;;;6.22;;
53931;SDS011;39844;52.496;13.482;2022-08-19T12:15:58;7.50;;;6.30;;
53931;SDS011;39844;52.496;13.482;2022-08-19T12:18:24;5.95;;;5.35;;
53931;SDS011;39844;52.496;13.482;2022-08-19T12:20:50;6.28;;;5.57;;
53931;SDS011;39844;52.496;13.482;2022-08-19T12:23:16;6.55;;;5.75;;
53931;SDS011;39844;52.496;13.482;2022-08-19T12:25:46;6.35;;;5.72;;
53931;SDS011;39844;52.496;13.482;2022-08-19T12:28:19;8.13;;;5.40;;
53931;SDS011;39844;52.496;13.482;2022-08-19T12:30:46;5.68;;;5.15;;
53931;SDS011;39844;52.496;13.482;2022-08-19T12:33:12;6.05;;;5.10;;
53931;SDS011;39844;52.496;13.482;2022-08-19T12:35:41;6.47;;;5.47;;
53931;SDS011;39844;52.496;13.482;2022-08-19T12:38:08;5.85;;;5.20;;
53931;SDS011;39844;52.496;13.482;2022-08-19T12:40:34;9.75;;;5.60;;
53931;SDS011;39844;52.496;13.482;2022-08-19T12:42:59;6.18;;;5.50;;
53931;SDS011;39844;52.496;13.482;2022-08-19T12:45:25;11.07;;;5.60;;
53931;SDS011;39844;52.496;13.482;2022-08-19T12:47:50;7.72;;;5.45;;
53931;SDS011;39844;52.496;13.482;2022-08-19T12:50:17;7.97;;;5.68;;
53931;SDS011;39844;52.496;13.482;2022-08-19T12:52:46;7.07;;;5.60;;
53931;SDS011;39844;52.496;13.482;2022-08-19T12:55:11;5.72;;;4.78;;
53931;SDS011;39844;52.496;13.482;2022-08-19T12:57:37;5.78;;;5.18;;
53931;SDS011;39844;52.496;13.482;2022-08-19T13:00:07;8.50;;;5.40;;
53931;SDS011;39844;52.496;13.482;2022-08-19T13:02:36;6.13;;;5.20;;
53931;SDS011;39844;52.496;13.482;2022-08-19T13:05:03;6.25;;;5.07;;
53931;SDS011;39844;52.496;13.482;2022-08-19T13:07:31;6.30;;;5.32;;
53931;SDS011;39844;52.496;13.482;2022-08-19T13:09:56;8.43;;;5.80;;
53931;SDS011;39844;52.496;13.482;2022-08-19T13:12:22;5.78;;;5.28;;
53931;SDS011;39844;52.496;13.482;2022-08-19T13:14:49;6.00;;;5.47;;
53931;SDS011;39844;52.496;13.482;2022-08-19T13:17:15;5.95;;;5.07;;
53931;SDS011;39844;52.496;13.482;2022-08-19T13:19:40;6.38;;;5.43;;
53931;SDS011;39844;52.496;13.482;2022-08-19T13:22:06;7.90;;;5.35;;
53931;SDS011;39844;52.496;13.482;2022-08-19T13:24:32;7.20;;;5.80;;
53931;SDS011;39844;52.496;13.482;2022-08-19T13:26:58;7.30;;;5.95;;
53931;SDS011;39844;52.496;13.482;2022-08-19T13:29:24;9.27;;;6.38;;
53931;SDS011;39844;52.496;13.482;2022-08-19T13:32:08;5.90;;;5.30;;
53931;SDS011;39844;52.496;13.482;2022-08-19T13:34:52;7.85;;;5.50;;
53931;SDS011;39844;52.496;13.482;2022-08-19T13:37:17;6.85;;;6.00;;
53931;SDS011;39844;52.496;13.482;2022-08-19T13:40:02;6.70;;;5.93;;
53931;SDS011;39844;52.496;13.482;2022-08-19T13:42:28;6.55;;;5.85;;
53931;SDS011;39844;52.496;13.482;2022-08-19T13:44:54;5.82;;;5.30;;
53931;SDS011;39844;52.496;13.482;2022-08-19T13:47:20;8.05;;;5.55;;
53931;SDS011;39844;52.496;13.482;2022-08-19T13:49:45;7.75;;;6.00;;
53931;SDS011;39844;52.496;13.482;2022-08-19T13:52:11;6.40;;;5.80;;
53931;SDS011;39844;52.496;13.482;2022-08-19T13:54:36;9.13;;;6.78;;
53931;SDS011;39844;52.496;13.482;2022-08-19T13:57:02;7.78;;;6.28;;
53931;SDS011;39844;52.496;13.482;2022-08-19T13:59:27;7.07;;;5.78;;
53931;SDS011;39844;52.496;13.482;2022-08-19T14:01:56;7.28;;;6.50;;
53931;SDS011;39844;52.496;13.482;2022-08-19T14:04:23;6.15;;;5.32;;
53931;SDS011;39844;52.496;13.482;2022-08-19T14:06:48;6.97;;;5.72;;
53931;SDS011;39844;52.496;13.482;2022-08-19T14:09:13;6.47;;;5.88;;
53931;SDS011;39844;52.496;13.482;2022-08-19T14:11:39;6.57;;;5.90;;
53931;SDS011;39844;52.496;13.482;2022-08-19T14:14:04;6.95;;;6.00;;
53931;SDS011;39844;52.496;13.482;2022-08-19T14:16:29;8.18;;;5.88;;
53931;SDS011;39844;52.496;13.482;2022-08-19T14:18:55;6.80;;;6.10;;
53931;SDS011;39844;52.496;13.482;2022-08-19T14:21:32;6.78;;;6.10;;
53931;SDS011;39844;52.496;13.482;2022-08-19T14:24:07;6.40;;;5.63;;
53931;SDS011;39844;52.496;13.482;2022-08-19T14:26:35;8.50;;;6.05;;
53931;SDS011;39844;52.496;13.482;2022-08-19T14:29:06;9.80;;;6.25;;
53931;SDS011;39844;52.496;13.482;2022-08-19T14:31:31;7.60;;;6.18;;
53931;SDS011;39844;52.496;13.482;2022-08-19T14:33:57;6.97;;;6.07;;
53931;SDS011;39844;52.496;13.482;2022-08-19T14:36:24;6.68;;;5.88;;
53931;SDS011;39844;52.496;13.482;2022-08-19T14:38:52;8.02;;;5.90;;
53931;SDS011;39844;52.496;13.482;2022-08-19T14:41:21;8.38;;;5.97;;
53931;SDS011;39844;52.496;13.482;2022-08-19T14:43:57;6.20;;;5.60;;
53931;SDS011;39844;52.496;13.482;2022-08-19T14:46:25;7.97;;;5.55;;
53931;SDS011;39844;52.496;13.482;2022-08-19T14:48:54;7.47;;;5.55;;
53931;SDS011;39844;52.496;13.482;2022-08-19T14:51:24;5.93;;;5.32;;
53931;SDS011;39844;52.496;13.482;2022-08-19T14:53:52;7.15;;;5.85;;